Terminal Aerodrome Forecast
Issued by NWS

Home | Current Version | Previous Version | Text Only | Print | Product List | Glossary On
Versions: 1 2 3 4 5 6 7 8 9 10 11 12 13 14
000
FTUS46 KSTO 040900 AAA
TAFSMF
TAF AMD
KSMF 040903Z 0409/0506 16010KT P6SM SKC
     FM041300 17010G16KT P6SM BKN009
     FM041600 22008KT P6SM SCT014
     FM041800 23007KT P6SM SKC=

USA.gov is the U.S. government's official web portal to all federal, state and local government web resources and services.